Time;durP1;ratioP1;P1;durP2;ratioP2;P2;SDS_P1;SDS_P2;PMS_P1;PMS_P2;Temp;Humidity;BMP_temperature;BMP_pressure;BME280_temperature;BME280_humidity;BME280_pressure;Samples;Min_cycle;Max_cycle;Signal;HPM_P1;HPM_P2
2022/09/15 00:01:08;;;;;;;31.00;23.50;;;16.40;99.90;;;;;;5170979;23;20455;-86
2022/09/15 00:03:35;;;;;;;29.33;21.80;;;16.40;99.90;;;;;;5210996;23;20483;-85
2022/09/15 00:06:04;;;;;;;27.97;23.37;;;16.30;99.90;;;;;;5129691;23;20503;-84
2022/09/15 00:08:31;;;;;;;27.03;22.20;;;16.30;99.90;;;;;;5114190;23;20486;-84
2022/09/15 00:11:10;;;;;;;30.87;20.87;;;16.20;99.90;;;;;;5077594;23;20504;-84
2022/09/15 00:13:39;;;;;;;30.67;22.50;;;16.10;99.90;;;;;;5061278;23;20461;-86
2022/09/15 00:18:46;;;;;;;34.33;23.80;;;16.00;99.90;;;;;;5008728;23;20471;-86
2022/09/15 00:21:17;;;;;;;30.30;20.47;;;16.00;99.90;;;;;;4948568;23;20521;-88
2022/09/15 00:23:45;;;;;;;31.53;23.63;;;15.90;99.90;;;;;;4929293;29;20502;-88
2022/09/15 00:26:15;;;;;;;31.70;21.17;;;15.90;99.90;;;;;;4930526;29;20458;-85
2022/09/15 00:28:43;;;;;;;30.97;21.40;;;15.90;99.90;;;;;;4929554;29;20457;-85
2022/09/15 00:31:18;;;;;;;25.40;19.57;;;16.00;99.90;;;;;;4931316;29;20497;-85
2022/09/15 00:33:53;;;;;;;34.13;23.30;;;16.00;99.90;;;;;;4913772;29;20438;-86
2022/09/15 00:36:21;;;;;;;27.43;21.77;;;15.80;99.90;;;;;;4929763;29;20436;-85
2022/09/15 00:38:48;;;;;;;32.77;23.83;;;15.80;99.90;;;;;;4913679;29;20496;-86
2022/09/15 00:41:16;;;;;;;27.57;22.00;;;16.00;99.90;;;;;;4929329;29;21042;-87
2022/09/15 00:43:51;;;;;;;37.40;23.50;;;16.00;99.90;;;;;;4929325;29;20445;-85
2022/09/15 00:46:24;;;;;;;35.00;21.30;;;16.20;99.90;;;;;;4929698;29;20404;-87
2022/09/15 00:49:25;;;;;;;34.90;20.20;;;16.40;99.90;;;;;;4924053;29;20467;-86
2022/09/15 00:51:53;;;;;;;28.63;21.33;;;16.40;99.90;;;;;;4921981;29;20474;-85
2022/09/15 00:54:58;;;;;;;28.17;22.33;;;16.30;99.90;;;;;;4941232;29;20445;-85
2022/09/15 00:57:51;;;;;;;29.20;20.83;;;16.50;99.90;;;;;;4938330;29;20417;-84
2022/09/15 01:00:21;;;;;;;25.80;19.63;;;16.30;99.90;;;;;;4913712;29;20441;-84
2022/09/15 01:02:49;;;;;;;28.23;20.80;;;16.30;99.90;;;;;;4932342;29;20501;-85
2022/09/15 01:05:21;;;;;;;27.87;21.30;;;16.40;99.90;;;;;;4930405;29;20428;-87
2022/09/15 01:08:16;;;;;;;29.73;19.33;;;16.30;99.90;;;;;;4931015;29;20432;-86
2022/09/15 01:10:45;;;;;;;28.77;19.23;;;16.30;99.90;;;;;;4923355;29;20530;-85
2022/09/15 01:13:13;;;;;;;23.47;18.87;;;16.20;99.90;;;;;;4928550;29;20439;-83
2022/09/15 01:15:40;;;;;;;30.27;20.57;;;16.10;99.90;;;;;;4931014;29;20449;-83
2022/09/15 01:18:19;;;;;;;22.60;17.27;;;16.20;99.90;;;;;;4932777;29;20409;-86
2022/09/15 01:21:07;;;;;;;29.80;19.87;;;16.10;99.90;;;;;;4927378;29;20477;-83
2022/09/15 01:23:53;;;;;;;23.57;17.83;;;16.00;99.90;;;;;;4926295;29;20457;-84
2022/09/15 01:26:45;;;;;;;23.40;17.57;;;16.10;99.90;;;;;;4926230;29;20461;-82
2022/09/15 01:29:38;;;;;;;23.87;20.13;;;15.90;99.90;;;;;;4927825;29;20413;-84
2022/09/15 01:35:33;;;;;;;24.83;21.80;;;15.90;99.90;;;;;;4922214;29;20419;-88
2022/09/15 01:38:02;;;;;;;25.57;19.20;;;15.90;99.90;;;;;;4924446;29;20419;-84
2022/09/15 01:40:36;;;;;;;22.07;18.10;;;15.90;99.90;;;;;;4933544;29;20467;-84
2022/09/15 01:43:05;;;;;;;33.23;20.60;;;16.00;99.90;;;;;;4937634;29;20484;-85
2022/09/15 01:45:36;;;;;;;21.50;18.10;;;15.90;99.90;;;;;;4934861;29;20487;-85
2022/09/15 01:48:07;;;;;;;18.70;16.70;;;15.90;99.90;;;;;;4916735;29;20452;-86
2022/09/15 01:50:41;;;;;;;21.70;17.70;;;15.90;99.90;;;;;;4928360;29;20610;-84
2022/09/15 01:53:14;;;;;;;23.17;20.37;;;15.90;99.90;;;;;;4927877;29;20466;-85
2022/09/15 01:55:57;;;;;;;21.40;17.53;;;15.90;99.90;;;;;;4911286;29;20465;-83
2022/09/15 01:58:26;;;;;;;28.07;19.70;;;15.90;99.90;;;;;;4927612;29;20411;-85
2022/09/15 02:01:20;;;;;;;24.00;18.67;;;15.80;99.90;;;;;;4912317;29;20460;-89
2022/09/15 02:03:57;;;;;;;34.37;21.40;;;15.80;99.90;;;;;;4928756;29;20431;-83
2022/09/15 02:06:42;;;;;;;25.60;20.33;;;15.80;99.90;;;;;;4927878;29;20416;-86
2022/09/15 02:09:16;;;;;;;29.30;22.77;;;15.80;99.90;;;;;;4927969;29;20435;-84
2022/09/15 02:12:00;;;;;;;34.67;26.20;;;15.70;99.90;;;;;;4926849;29;20513;-82
2022/09/15 02:14:36;;;;;;;29.33;23.80;;;15.70;99.90;;;;;;4927658;29;20435;-86
2022/09/15 02:17:04;;;;;;;35.00;24.50;;;15.60;99.90;;;;;;4926467;29;20722;-82
2022/09/15 02:19:42;;;;;;;36.30;26.83;;;15.60;99.90;;;;;;4927260;29;20419;-85
2022/09/15 02:22:22;;;;;;;35.77;28.20;;;15.60;99.90;;;;;;4923808;29;20538;-87
2022/09/15 02:24:56;;;;;;;39.63;29.07;;;15.60;99.90;;;;;;4923175;29;20462;-87
2022/09/15 02:27:27;;;;;;;44.70;29.30;;;15.70;99.90;;;;;;4912438;29;20455;-85
2022/09/15 02:29:58;;;;;;;43.10;29.83;;;15.60;99.90;;;;;;4929896;29;20443;-84
2022/09/15 02:32:27;;;;;;;42.67;30.30;;;15.70;99.90;;;;;;4923741;29;20488;-84
2022/09/15 02:34:57;;;;;;;36.70;26.20;;;15.60;99.90;;;;;;4930405;29;20635;-87
2022/09/15 02:37:25;;;;;;;42.77;31.80;;;15.70;99.90;;;;;;4928698;29;20435;-84
2022/09/15 02:39:56;;;;;;;39.87;30.00;;;15.70;99.90;;;;;;4926765;29;20448;-84
2022/09/15 02:42:25;;;;;;;36.67;29.67;;;15.70;99.90;;;;;;4929058;29;20442;-87
2022/09/15 02:44:52;;;;;;;44.43;27.47;;;15.70;99.90;;;;;;4927160;29;20758;-86
2022/09/15 02:49:56;;;;;;;42.37;29.27;;;15.60;99.90;;;;;;4932901;29;20258;-84
2022/09/15 02:52:23;;;;;;;38.80;29.77;;;15.50;99.90;;;;;;4939024;29;20422;-87
2022/09/15 02:54:50;;;;;;;43.20;30.27;;;15.50;99.90;;;;;;5021429;23;20505;-86
2022/09/15 02:57:17;;;;;;;36.77;28.97;;;15.40;99.90;;;;;;4915192;29;20440;-82
2022/09/15 03:02:31;;;;;;;44.03;27.30;;;15.30;99.90;;;;;;4927414;29;20504;-82
2022/09/15 03:04:57;;;;;;;43.15;30.38;;;15.30;99.90;;;;;;4935068;29;20202;-82
2022/09/15 03:07:27;;;;;;;36.70;27.58;;;15.20;99.90;;;;;;4937666;29;20225;-82
2022/09/15 03:09:54;;;;;;;35.30;25.83;;;15.10;99.90;;;;;;4936598;29;20241;-83
2022/09/15 03:12:21;;;;;;;33.95;25.15;;;15.10;99.90;;;;;;4940119;29;20439;-81
2022/09/15 03:14:49;;;;;;;31.65;25.13;;;15.00;99.90;;;;;;4935127;29;20206;-81
2022/09/15 03:17:17;;;;;;;36.77;25.90;;;15.00;99.90;;;;;;4931706;29;20205;-83
2022/09/15 03:19:44;;;;;;;32.90;23.15;;;14.90;99.90;;;;;;4933536;29;20443;-81
2022/09/15 03:22:14;;;;;;;24.73;18.95;;;14.90;99.90;;;;;;4930966;29;20230;-86
2022/09/15 03:24:41;;;;;;;23.90;17.40;;;14.80;99.90;;;;;;4933768;29;20555;-83
2022/09/15 03:27:08;;;;;;;26.15;15.93;;;14.70;99.90;;;;;;4927968;29;20699;-81
2022/09/15 03:29:35;;;;;;;22.88;14.60;;;14.60;99.90;;;;;;4926974;29;20497;-84
2022/09/15 03:32:01;;;;;;;16.88;12.68;;;14.60;99.90;;;;;;4941314;29;20285;-87
2022/09/15 03:34:29;;;;;;;17.98;14.27;;;14.60;99.90;;;;;;4924684;29;20217;-83
2022/09/15 03:36:56;;;;;;;17.88;13.38;;;14.50;99.90;;;;;;5039244;23;20273;-84
2022/09/15 03:39:23;;;;;;;17.80;11.90;;;14.50;99.90;;;;;;4938085;29;20244;-85
2022/09/15 03:41:50;;;;;;;21.90;13.25;;;14.50;99.90;;;;;;5081868;23;20233;-83
2022/09/15 03:44:17;;;;;;;14.10;12.55;;;14.50;99.90;;;;;;4932489;29;20348;-89
2022/09/15 03:46:44;;;;;;;19.80;12.50;;;14.50;99.90;;;;;;4929784;29;20231;-87
2022/09/15 03:49:11;;;;;;;20.70;14.20;;;14.50;99.90;;;;;;4933739;29;20201;-86
2022/09/15 03:51:38;;;;;;;18.90;14.32;;;14.60;99.90;;;;;;4917163;29;20249;-86
2022/09/15 03:54:05;;;;;;;21.20;13.27;;;14.80;99.90;;;;;;4936257;29;20232;-85
2022/09/15 03:56:32;;;;;;;17.17;12.45;;;14.80;99.90;;;;;;4938845;29;20201;-88
2022/09/15 03:59:01;;;;;;;23.47;13.10;;;14.90;99.90;;;;;;4926618;29;20206;-84
2022/09/15 04:01:28;;;;;;;15.00;12.00;;;14.80;99.90;;;;;;4908262;29;20687;-83
2022/09/15 04:03:57;;;;;;;16.45;10.70;;;14.90;99.90;;;;;;4931471;29;20272;-86
2022/09/15 04:06:25;;;;;;;18.67;13.52;;;14.80;99.90;;;;;;4930629;29;20430;-87
2022/09/15 04:08:52;;;;;;;15.57;12.18;;;14.70;99.90;;;;;;4935395;29;20192;-86
2022/09/15 04:14:01;;;;;;;16.05;10.65;;;15.00;99.90;;;;;;5329358;23;20474;-85
2022/09/15 04:16:28;;;;;;;17.33;10.05;;;15.00;99.90;;;;;;4916847;29;20410;-83
2022/09/15 04:18:56;;;;;;;11.70;7.97;;;14.80;99.90;;;;;;4910633;29;20205;-82
2022/09/15 04:21:25;;;;;;;13.85;8.43;;;14.50;99.90;;;;;;4901819;29;20540;-84
2022/09/15 04:23:53;;;;;;;18.92;9.85;;;14.50;99.90;;;;;;4921401;29;20189;-90
2022/09/15 04:26:30;;;;;;;15.45;9.00;;;14.50;99.90;;;;;;4918201;29;20193;-87
2022/09/15 04:31:33;;;;;;;14.60;10.77;;;14.50;99.90;;;;;;5169372;23;20239;-90
2022/09/15 04:34:00;;;;;;;16.02;10.60;;;14.70;99.90;;;;;;4939507;29;20192;-91
2022/09/15 04:36:28;;;;;;;17.83;11.25;;;14.80;99.90;;;;;;4941582;29;20211;-88
2022/09/15 04:38:56;;;;;;;14.52;11.98;;;14.90;99.90;;;;;;4957410;28;20184;-85
2022/09/15 04:41:25;;;;;;;12.45;11.15;;;14.70;99.90;;;;;;4988339;23;20220;-85
2022/09/15 04:43:52;;;;;;;16.23;11.82;;;14.80;99.90;;;;;;4948687;29;20203;-89
2022/09/15 04:46:19;;;;;;;17.75;13.90;;;14.70;99.90;;;;;;4927925;29;20201;-85
2022/09/15 04:48:47;;;;;;;24.30;16.00;;;14.60;99.90;;;;;;4916166;29;20204;-85
2022/09/15 04:51:20;;;;;;;18.98;14.23;;;14.50;99.90;;;;;;4924438;29;20252;-85
2022/09/15 04:53:47;;;;;;;24.08;15.20;;;14.50;99.90;;;;;;4933596;29;20224;-82
2022/09/15 04:56:17;;;;;;;19.83;15.07;;;14.50;99.90;;;;;;4934588;29;20205;-82
2022/09/15 04:58:50;;;;;;;20.73;14.98;;;14.60;99.90;;;;;;4923117;29;20228;-81
2022/09/15 05:01:20;;;;;;;20.33;15.00;;;14.70;99.90;;;;;;4917387;29;20213;-82
2022/09/15 05:03:48;;;;;;;19.23;15.00;;;14.60;99.90;;;;;;4924218;29;20210;-83
2022/09/15 05:06:17;;;;;;;18.17;13.18;;;14.50;99.90;;;;;;4908628;29;20212;-84
2022/09/15 05:08:48;;;;;;;20.45;13.48;;;14.70;99.90;;;;;;4926600;29;20205;-82
2022/09/15 05:11:16;;;;;;;20.38;13.88;;;14.70;99.90;;;;;;4925790;29;20388;-84
2022/09/15 05:13:43;;;;;;;21.70;14.93;;;14.80;99.90;;;;;;4933426;29;20257;-83
2022/09/15 05:16:15;;;;;;;19.48;16.10;;;14.90;99.90;;;;;;4936685;29;20220;-83
2022/09/15 05:18:44;;;;;;;27.83;15.70;;;14.90;99.90;;;;;;4936071;29;20233;-89
2022/09/15 05:21:13;;;;;;;18.23;16.33;;;14.90;99.90;;;;;;4935042;29;20298;-90
2022/09/15 05:29:00;;;;;;;19.92;17.55;;;15.10;99.90;;;;;;5394697;23;20289;-86
2022/09/15 05:31:30;;;;;;;24.33;20.38;;;15.20;99.90;;;;;;4909928;29;20509;-84
2022/09/15 05:39:14;;;;;;;22.60;15.48;;;15.30;99.90;;;;;;5477770;23;20241;-92
2022/09/15 05:41:41;;;;;;;17.90;14.80;;;15.50;99.90;;;;;;5107520;23;20250;-90
2022/09/15 05:44:09;;;;;;;22.00;16.70;;;15.50;99.90;;;;;;5145317;23;20275;-88
2022/09/15 05:46:35;;;;;;;23.07;13.20;;;15.60;99.90;;;;;;5233841;23;20231;-89
2022/09/15 05:49:02;;;;;;;33.07;16.20;;;15.70;99.90;;;;;;5161456;23;20452;-89
2022/09/15 05:51:29;;;;;;;16.03;11.40;;;15.70;99.90;;;;;;4923448;29;20462;-87
2022/09/15 05:56:34;;;;;;;21.57;13.40;;;15.80;99.90;;;;;;5039875;23;20249;-87
2022/09/15 05:59:01;;;;;;;18.30;13.93;;;15.60;99.90;;;;;;4948300;29;20484;-90
2022/09/15 06:01:29;;;;;;;18.75;13.80;;;15.50;99.90;;;;;;5231942;23;20504;-88
2022/09/15 06:09:06;;;;;;;16.95;13.95;;;15.50;99.90;;;;;;5230855;23;20463;-89
2022/09/15 06:14:15;;;;;;;16.20;11.00;;;15.90;99.90;;;;;;5101374;23;20492;-87
2022/09/15 06:19:24;;;;;;;19.17;9.70;;;16.30;99.90;;;;;;5523780;23;20556;-87
2022/09/15 06:21:52;;;;;;;11.27;9.27;;;16.60;99.90;;;;;;5118189;23;20529;-88
2022/09/15 06:26:55;;;;;;;9.90;8.63;;;16.70;99.90;;;;;;5003538;23;20285;-87
2022/09/15 06:32:01;;;;;;;12.50;8.80;;;17.00;99.90;;;;;;5578958;23;20260;-87
2022/09/15 06:34:42;;;;;;;12.37;9.03;;;16.80;99.90;;;;;;5651686;22;20608;-86
2022/09/15 06:37:10;;;;;;;12.00;7.20;;;16.70;99.90;;;;;;5109370;28;20449;-89
2022/09/15 06:39:37;;;;;;;10.23;7.40;;;16.60;99.90;;;;;;5082715;28;20500;-87
2022/09/15 06:42:04;;;;;;;7.50;6.00;;;16.70;99.90;;;;;;5094542;28;20465;-89
2022/09/15 06:44:31;;;;;;;8.67;6.70;;;16.80;99.90;;;;;;5262409;22;20661;-90
2022/09/15 06:46:58;;;;;;;11.33;6.67;;;17.00;99.90;;;;;;5345516;22;20556;-86
2022/09/15 06:49:25;;;;;;;9.63;6.27;;;17.40;99.90;;;;;;5096109;28;20437;-86
2022/09/15 06:51:52;;;;;;;11.70;8.90;;;17.60;99.90;;;;;;5065972;28;20431;-86
2022/09/15 06:54:19;;;;;;;7.57;6.50;;;17.70;99.90;;;;;;5083695;28;20458;-86
2022/09/15 06:56:46;;;;;;;10.70;6.40;;;18.60;99.90;;;;;;5080261;28;20493;-85
2022/09/15 06:59:15;;;;;;;10.67;6.60;;;19.70;99.90;;;;;;5073120;28;20463;-85
2022/09/15 07:01:42;;;;;;;6.70;5.03;;;19.90;99.90;;;;;;5075978;28;20757;-83
2022/09/15 07:04:10;;;;;;;9.90;5.33;;;20.60;99.90;;;;;;5075057;28;20453;-83
2022/09/15 07:06:38;;;;;;;10.03;5.63;;;21.10;99.90;;;;;;5079372;28;20448;-83
2022/09/15 07:09:05;;;;;;;11.73;4.80;;;22.00;99.90;;;;;;5082639;28;20450;-83
2022/09/15 07:11:32;;;;;;;7.07;4.33;;;22.90;99.90;;;;;;5083437;28;20407;-84
2022/09/15 07:14:00;;;;;;;5.30;3.80;;;23.30;99.90;;;;;;5085215;28;20500;-82
2022/09/15 07:16:26;;;;;;;7.07;4.70;;;23.80;99.90;;;;;;5093049;28;20432;-82
2022/09/15 07:18:55;;;;;;;11.80;4.67;;;23.90;99.90;;;;;;5094456;28;20419;-80
2022/09/15 07:21:23;;;;;;;5.40;4.23;;;23.30;99.90;;;;;;5092914;28;20436;-84
2022/09/15 07:23:51;;;;;;;6.37;4.47;;;22.80;99.90;;;;;;5101845;28;20468;-84
2022/09/15 07:26:23;;;;;;;5.03;3.73;;;22.90;99.90;;;;;;5091640;28;20647;-87
2022/09/15 07:29:00;;;;;;;6.93;4.00;;;24.10;99.90;;;;;;5091863;28;20439;-81
2022/09/15 07:31:30;;;;;;;21.50;9.30;;;23.00;99.90;;;;;;5078233;28;20462;-83
2022/09/15 07:34:01;;;;;;;57.70;19.47;;;21.60;99.90;;;;;;5085421;28;20514;-83
2022/09/15 07:36:28;;;;;;;16.70;8.90;;;21.00;99.90;;;;;;5079525;28;20710;-84
2022/09/15 07:38:56;;;;;;;6.80;3.43;;;22.10;99.90;;;;;;5091682;28;20436;-83
2022/09/15 07:41:25;;;;;;;6.83;4.03;;;23.50;99.90;;;;;;5072423;28;20414;-82
2022/09/15 07:43:55;;;;;;;7.23;3.40;;;23.30;99.90;;;;;;5061535;28;20771;-83
2022/09/15 07:46:24;;;;;;;5.33;4.03;;;22.20;99.90;;;;;;5065437;28;20627;-83
2022/09/15 07:48:55;;;;;;;6.70;4.07;;;22.00;99.90;;;;;;5048585;28;20411;-83
2022/09/15 07:51:23;;;;;;;7.30;4.10;;;22.70;99.90;;;;;;5048135;28;20743;-84
2022/09/15 07:53:50;;;;;;;5.23;3.90;;;22.60;99.90;;;;;;5073358;28;20600;-81
2022/09/15 07:56:18;;;;;;;7.87;3.57;;;24.20;99.90;;;;;;5063191;28;20560;-84
2022/09/15 07:58:46;;;;;;;6.53;3.43;;;25.10;99.90;;;;;;5053667;28;20503;-83
2022/09/15 08:01:14;;;;;;;5.07;3.63;;;24.30;99.90;;;;;;5072665;28;20467;-80
2022/09/15 08:03:45;;;;;;;9.20;4.13;;;22.50;99.90;;;;;;5077884;28;20418;-83
2022/09/15 08:06:13;;;;;;;4.90;3.77;;;21.10;99.90;;;;;;5073023;28;20440;-83
2022/09/15 08:08:42;;;;;;;5.80;4.67;;;20.50;99.90;;;;;;5064513;28;20439;-85
2022/09/15 08:11:13;;;;;;;12.17;4.50;;;20.70;99.90;;;;;;5047286;28;20409;-82
2022/09/15 08:13:46;;;;;;;5.83;3.57;;;21.10;99.90;;;;;;5049709;28;20480;-84
2022/09/15 08:16:15;;;;;;;5.83;3.73;;;21.60;99.90;;;;;;5047847;28;20657;-84
2022/09/15 08:18:43;;;;;;;6.90;4.20;;;22.90;99.90;;;;;;5065679;28;20777;-85
2022/09/15 08:21:14;;;;;;;5.73;4.03;;;22.90;99.90;;;;;;5069941;28;20427;-81
2022/09/15 08:23:41;;;;;;;4.20;3.20;;;22.90;99.90;;;;;;5068442;28;20495;-83
2022/09/15 08:26:09;;;;;;;4.30;3.60;;;24.80;99.90;;;;;;5051037;28;20415;-83
2022/09/15 08:28:40;;;;;;;6.80;3.80;;;26.90;99.90;;;;;;5066312;28;20496;-84
2022/09/15 08:31:10;;;;;;;7.77;4.27;;;28.60;99.90;;;;;;5056966;28;20411;-84
2022/09/15 08:33:37;;;;;;;4.90;3.93;;;27.80;99.90;;;;;;5066434;28;20447;-85
2022/09/15 08:36:11;;;;;;;4.03;3.73;;;25.90;99.90;;;;;;5068856;28;20610;-86
2022/09/15 08:38:43;;;;;;;7.60;4.10;;;23.90;99.90;;;;;;5062817;28;20440;-84
2022/09/15 08:41:24;;;;;;;9.70;3.47;;;22.60;99.90;;;;;;5045700;28;20403;-83
2022/09/15 08:44:15;;;;;;;6.00;4.40;;;22.20;99.90;;;;;;5038653;28;20408;-84
2022/09/15 08:47:02;;;;;;;5.33;3.43;;;22.70;99.90;;;;;;5073474;28;20455;-84
2022/09/15 08:49:57;;;;;;;7.90;3.70;;;23.40;99.90;;;;;;5069924;28;20524;-86
2022/09/15 08:52:47;;;;;;;4.60;2.93;;;23.20;99.90;;;;;;5052051;28;20475;-85
2022/09/15 08:55:25;;;;;;;10.43;3.77;;;22.70;99.90;;;;;;5073904;28;20432;-85
2022/09/15 08:57:52;;;;;;;3.70;3.33;;;21.80;99.90;;;;;;5044791;28;20436;-85
2022/09/15 09:00:20;;;;;;;5.87;3.23;;;21.70;99.90;;;;;;5063318;28;20437;-85
2022/09/15 09:03:04;;;;;;;5.97;3.03;;;22.50;99.90;;;;;;5076457;28;20457;-84
2022/09/15 09:05:51;;;;;;;2.97;2.67;;;22.80;99.90;;;;;;5058056;28;20414;-85
2022/09/15 09:08:44;;;;;;;4.40;2.70;;;23.30;99.90;;;;;;5051679;28;20428;-83
2022/09/15 09:12:10;;;;;;;4.13;3.10;;;23.00;99.90;;;;;;5057066;28;20787;-84
2022/09/15 09:14:59;;;;;;;4.63;2.40;;;22.10;99.90;;;;;;4981250;28;20450;-86
2022/09/15 09:17:52;;;;;;;5.63;2.50;;;21.30;99.90;;;;;;5059377;28;20437;-85
2022/09/15 09:20:42;;;;;;;4.93;3.70;;;21.00;99.90;;;;;;5051197;28;20446;-84
2022/09/15 09:23:14;;;;;;;7.60;3.23;;;20.80;99.90;;;;;;5068065;28;20762;-86
2022/09/15 09:25:43;;;;;;;3.33;2.60;;;20.60;99.90;;;;;;5064183;28;20421;-86
2022/09/15 09:28:37;;;;;;;25.57;3.20;;;20.30;99.90;;;;;;5064993;28;20665;-86
2022/09/15 09:31:11;;;;;;;7.03;2.90;;;20.20;99.90;;;;;;5047191;28;20751;-87
2022/09/15 09:33:52;;;;;;;8.17;5.03;;;19.90;99.90;;;;;;5065814;28;20517;-85
2022/09/15 09:36:19;;;;;;;8.43;3.30;;;19.60;99.90;;;;;;5063611;28;20470;-83
2022/09/15 09:38:50;;;;;;;6.57;4.00;;;19.60;99.90;;;;;;5044169;28;20483;-84
2022/09/15 09:41:24;;;;;;;3.53;2.97;;;19.70;99.90;;;;;;5069767;28;20444;-84
2022/09/15 09:43:55;;;;;;;9.53;3.60;;;19.90;99.90;;;;;;5039482;28;20449;-84
2022/09/15 09:46:21;;;;;;;9.00;3.40;;;20.20;99.90;;;;;;5055174;28;20473;-84
2022/09/15 09:48:55;;;;;;;5.53;3.70;;;20.60;99.90;;;;;;5075141;28;20413;-85
2022/09/15 09:51:37;;;;;;;13.23;4.23;;;21.00;99.90;;;;;;5056777;28;20419;-85
2022/09/15 09:54:14;;;;;;;9.10;4.07;;;21.20;99.90;;;;;;5072275;28;20499;-83
2022/09/15 09:56:43;;;;;;;6.23;3.50;;;21.20;99.90;;;;;;5066861;28;20429;-84
2022/09/15 09:59:31;;;;;;;5.27;2.53;;;21.20;99.90;;;;;;5061626;28;20454;-85
2022/09/15 10:02:27;;;;;;;6.03;2.97;;;21.30;99.90;;;;;;5046219;28;20435;-85
2022/09/15 10:05:16;;;;;;;6.83;3.20;;;21.40;99.90;;;;;;5058275;28;20464;-86
2022/09/15 10:07:43;;;;;;;9.20;3.60;;;21.60;99.90;;;;;;5075192;28;20651;-85
2022/09/15 10:10:23;;;;;;;4.23;3.50;;;21.60;99.90;;;;;;5059176;28;20506;-85
2022/09/15 10:12:54;;;;;;;10.60;2.90;;;21.50;99.90;;;;;;5068996;28;20439;-83
2022/09/15 10:15:27;;;;;;;3.90;3.27;;;21.20;99.90;;;;;;5102640;28;20473;-85
2022/09/15 10:17:55;;;;;;;2.90;2.20;;;21.20;99.90;;;;;;5048496;28;20408;-86
2022/09/15 10:20:31;;;;;;;5.67;3.03;;;21.40;99.90;;;;;;5044594;28;20455;-81
2022/09/15 10:23:16;;;;;;;6.00;3.00;;;21.90;99.90;;;;;;5064132;28;20434;-84
2022/09/15 10:25:44;;;;;;;2.97;2.67;;;22.20;99.90;;;;;;5067919;28;20433;-86
2022/09/15 10:28:26;;;;;;;3.70;3.10;;;22.40;99.90;;;;;;5058069;28;20475;-81
2022/09/15 10:31:06;;;;;;;4.90;2.87;;;22.50;99.90;;;;;;5052985;28;20419;-85
2022/09/15 10:33:35;;;;;;;4.97;3.13;;;22.90;99.90;;;;;;5064736;28;20446;-85
2022/09/15 10:36:17;;;;;;;3.67;2.80;;;23.00;99.90;;;;;;5075006;28;20501;-87
2022/09/15 10:38:47;;;;;;;15.20;3.90;;;23.20;99.90;;;;;;5071862;28;20541;-87
2022/09/15 10:41:28;;;;;;;9.73;3.00;;;22.90;99.90;;;;;;5063298;28;20758;-85
2022/09/15 10:44:26;;;;;;;7.17;2.80;;;22.50;99.90;;;;;;5078637;28;20421;-83
2022/09/15 10:47:25;;;;;;;6.27;3.00;;;22.50;99.90;;;;;;5066737;28;20445;-86
2022/09/15 10:50:17;;;;;;;5.00;3.50;;;22.60;99.90;;;;;;5059989;28;20455;-86
2022/09/15 10:53:03;;;;;;;5.13;2.83;;;22.30;99.90;;;;;;5058847;28;20469;-82
2022/09/15 10:56:06;;;;;;;5.93;2.43;;;22.60;99.90;;;;;;5075960;28;20449;-83
2022/09/15 10:58:42;;;;;;;5.47;2.43;;;22.40;99.90;;;;;;5064401;28;20430;-84
2022/09/15 11:01:29;;;;;;;5.20;3.43;;;22.30;99.90;;;;;;5075187;28;20440;-86
2022/09/15 11:04:35;;;;;;;2.63;2.43;;;22.30;99.90;;;;;;5071472;28;20415;-84
2022/09/15 11:07:16;;;;;;;3.20;2.47;;;22.50;99.90;;;;;;5058438;28;20542;-84
2022/09/15 11:09:56;;;;;;;7.57;2.60;;;23.00;99.90;;;;;;5058468;28;20453;-83
2022/09/15 11:12:47;;;;;;;5.20;2.40;;;23.00;99.90;;;;;;5077066;28;20421;-84
2022/09/15 11:15:38;;;;;;;3.57;2.07;;;22.60;99.90;;;;;;5068240;28;20465;-83
2022/09/15 11:18:19;;;;;;;8.13;3.17;;;22.50;99.90;;;;;;5057805;28;20396;-83
2022/09/15 11:21:03;;;;;;;5.30;2.90;;;22.60;99.90;;;;;;5074103;28;20426;-83
2022/09/15 11:23:39;;;;;;;9.03;3.90;;;22.80;99.90;;;;;;5082147;28;20442;-82
2022/09/15 11:26:19;;;;;;;3.67;2.30;;;22.90;99.90;;;;;;5068762;28;20406;-83
2022/09/15 11:29:12;;;;;;;3.33;2.27;;;22.90;99.90;;;;;;5069354;28;20427;-84
2022/09/15 11:31:42;;;;;;;6.67;3.00;;;22.80;99.90;;;;;;5088066;28;20407;-85
2022/09/15 11:34:32;;;;;;;2.97;2.67;;;22.40;99.90;;;;;;5070652;28;20504;-85
2022/09/15 11:37:08;;;;;;;6.63;3.60;;;22.20;99.90;;;;;;5072253;28;20427;-84
2022/09/15 11:39:43;;;;;;;6.27;2.97;;;22.20;99.90;;;;;;5067188;28;20395;-84
2022/09/15 11:42:16;;;;;;;7.93;2.80;;;22.20;99.90;;;;;;5073757;28;20444;-84
2022/09/15 11:44:46;;;;;;;4.17;2.67;;;22.00;99.90;;;;;;5076762;28;20486;-86
2022/09/15 11:47:28;;;;;;;2.20;1.83;;;22.10;99.90;;;;;;5086402;28;20433;-84
2022/09/15 11:50:38;;;;;;;5.23;2.70;;;22.40;99.90;;;;;;5068502;28;20416;-84
2022/09/15 11:53:15;;;;;;;2.87;2.40;;;22.20;99.90;;;;;;4990772;28;20443;-84
2022/09/15 11:55:48;;;;;;;6.20;3.00;;;22.10;99.90;;;;;;4987836;28;20642;-82
2022/09/15 11:58:49;;;;;;;6.43;2.97;;;21.90;99.90;;;;;;5054999;28;20594;-83
2022/09/15 12:01:20;;;;;;;7.43;3.93;;;22.00;99.90;;;;;;5085305;28;20525;-83
2022/09/15 12:04:22;;;;;;;5.60;2.33;;;21.70;99.90;;;;;;5092215;28;20424;-82
2022/09/15 12:06:55;;;;;;;5.47;3.43;;;21.50;99.90;;;;;;5066445;28;20510;-87
2022/09/15 12:09:42;;;;;;;5.47;3.07;;;21.60;99.90;;;;;;5076584;28;20401;-85
2022/09/15 12:12:18;;;;;;;7.03;3.23;;;21.70;99.90;;;;;;5081151;28;20470;-83
2022/09/15 12:14:48;;;;;;;4.63;3.57;;;21.90;99.90;;;;;;5079295;28;20449;-82
2022/09/15 12:17:28;;;;;;;5.00;3.47;;;22.00;99.90;;;;;;5087974;28;20500;-84
2022/09/15 12:20:14;;;;;;;7.33;2.57;;;22.10;99.90;;;;;;5083806;28;20456;-88
2022/09/15 12:22:58;;;;;;;10.77;2.43;;;21.70;99.90;;;;;;5071665;28;20405;-86
2022/09/15 12:25:33;;;;;;;3.50;2.97;;;21.60;99.90;;;;;;5066875;28;20386;-84
2022/09/15 12:28:22;;;;;;;3.90;2.57;;;21.50;99.90;;;;;;5081835;28;20413;-84
2022/09/15 12:31:21;;;;;;;8.13;3.53;;;21.60;99.90;;;;;;5075918;28;20429;-83
2022/09/15 12:33:59;;;;;;;10.10;3.83;;;21.60;99.90;;;;;;5064071;28;20429;-82
2022/09/15 12:36:46;;;;;;;6.50;4.50;;;21.30;99.90;;;;;;5084302;28;20405;-83
2022/09/15 12:39:35;;;;;;;4.10;3.70;;;21.10;99.90;;;;;;5076156;28;20484;-82
2022/09/15 12:42:30;;;;;;;10.83;4.23;;;21.20;99.90;;;;;;5081187;28;20435;-83
2022/09/15 12:45:23;;;;;;;6.30;4.97;;;20.80;99.90;;;;;;5051968;28;20409;-84
2022/09/15 12:48:13;;;;;;;8.53;4.23;;;20.60;99.90;;;;;;5071573;28;20466;-87
2022/09/15 12:50:50;;;;;;;8.23;5.13;;;20.50;99.90;;;;;;5082654;28;20425;-84
2022/09/15 12:53:32;;;;;;;5.87;4.20;;;20.40;99.90;;;;;;5082661;28;20424;-85
2022/09/15 12:56:06;;;;;;;5.20;4.13;;;20.20;99.90;;;;;;5072769;28;20505;-85
2022/09/15 12:58:39;;;;;;;4.10;3.70;;;20.00;99.90;;;;;;5067651;28;20460;-83
2022/09/15 13:01:22;;;;;;;8.23;4.83;;;20.00;99.90;;;;;;5058827;28;20400;-83
2022/09/15 13:03:49;;;;;;;4.00;3.60;;;20.10;99.90;;;;;;5075642;28;20412;-83
2022/09/15 13:06:29;;;;;;;8.33;3.50;;;20.30;99.90;;;;;;5077334;28;20550;-86
2022/09/15 13:09:05;;;;;;;10.07;4.00;;;20.50;99.90;;;;;;5071360;28;20454;-83
2022/09/15 13:11:41;;;;;;;4.87;4.40;;;20.50;99.90;;;;;;5085288;28;20399;-83
2022/09/15 13:14:13;;;;;;;5.10;3.90;;;20.50;99.90;;;;;;5086257;28;20473;-85
2022/09/15 13:16:40;;;;;;;8.80;4.30;;;20.60;99.90;;;;;;5084522;28;20468;-85
2022/09/15 13:19:31;;;;;;;5.63;4.77;;;20.80;99.90;;;;;;5074909;28;20449;-86
2022/09/15 13:22:10;;;;;;;6.73;3.63;;;20.60;99.90;;;;;;5062226;28;20449;-84
2022/09/15 13:24:55;;;;;;;4.47;3.40;;;20.70;99.90;;;;;;5090960;28;20437;-83
2022/09/15 13:27:34;;;;;;;3.77;3.43;;;21.00;99.90;;;;;;5081213;28;20411;-84
2022/09/15 13:30:20;;;;;;;6.30;3.93;;;21.10;99.90;;;;;;5070819;28;20549;-84
2022/09/15 13:32:55;;;;;;;5.00;4.50;;;21.60;99.90;;;;;;5081226;28;20465;-85
2022/09/15 13:35:57;;;;;;;10.83;4.43;;;22.10;99.90;;;;;;5065973;28;20491;-83
2022/09/15 13:38:47;;;;;;;13.57;4.00;;;22.40;99.90;;;;;;5063039;28;20451;-83
2022/09/15 13:41:41;;;;;;;3.40;3.10;;;22.30;99.90;;;;;;5073905;28;20469;-84
2022/09/15 13:44:20;;;;;;;7.43;3.50;;;22.10;99.90;;;;;;5068881;28;20409;-85
2022/09/15 13:46:57;;;;;;;3.40;3.10;;;21.90;99.90;;;;;;5076326;28;20435;-83
2022/09/15 13:49:45;;;;;;;4.60;4.20;;;21.80;99.90;;;;;;5066348;28;20401;-83
2022/09/15 13:52:21;;;;;;;6.17;3.70;;;21.60;99.90;;;;;;5074200;28;20440;-84
2022/09/15 13:55:13;;;;;;;4.50;3.40;;;21.20;99.90;;;;;;5065105;28;20458;-84
2022/09/15 13:57:44;;;;;;;4.40;3.23;;;21.20;99.90;;;;;;5068491;28;20433;-83
2022/09/15 14:00:46;;;;;;;6.80;3.53;;;21.10;99.90;;;;;;5070757;28;20414;-85
2022/09/15 14:03:22;;;;;;;3.83;3.40;;;21.00;99.90;;;;;;5065717;28;20407;-87